Travis Air Force Base
KSUU : rendu visible

Aérodrome :











RETROUVEZ-NOUS SUR...

 
LOGIN :

S'inscrire | Disclaimer

   EN    FR    IT 

 









Légende :    VFR   VFR Marginal   IFR   IFR Intensif   IFR Très Intensif
Visi : 
Plafond : 
>= 8 km
>= 3000ft
5 à 8 km
1000 à 3000 ft
1500m à 5 km
500 à 1000 ft
800 à 1500m
200 à 500 ft
< 800m
< 200 ft
Symboles :   Orages  Brouillard  Fortes neiges  Fortes précipitations  Vent > 20 kt






- Altitude de l'aérodrome : 62 ft


KSUU - Travis Air Force Base

DERNIER METAR :
  • 200458Z AUTO 20008KT 10SM OVC095 12/08 A2956 RMK AO2 SLP017 T01200079 $

METARs EXPIRÉS :
  • 200358Z AUTO 21012KT 10SM CLR 12/08 A2956 RMK AO2 SLP017 T01150082 $
  • 200258Z AUTO 20010KT 10SM CLR 12/09 A2957 RMK AO2 SLP020 T01200085 57022 $

TAF TAF KSUU
Valide du 20 à 03h jusqu'au 21 à 09h UTC


200300Z 2003/2109 24012KT 9999 FEW060 QNH2960INS
BECMG 2006/2007 36012KT 9999 BKN060 QNH2958INS
BECMG 2009/2010 36015G25KT 9999 FEW100 QNH2956INS
BECMG 2016/2017 01025G35KT 9999 FEW060 530003 QNH2950INS
BECMG 2022/2023 01015G25KT 9999 SKC QNH2950INS TX23/2022Z TN10/2013Z



MET'MAP, la Météo Aéronautique d'un coup d'oeil ! - Copyright ORBIFLY Décembre 2007 - Disclaimer

ORBIFLY MET'MAP TEAM :

Programmation & Développement : Alexandra Zaïnal
Conception & Développement : Baudouin d'Aumeries
Co-Programmation & Développement : Marc-Olivier Méhu
Soutien technique & logistique : Manuel Goepfert

Contact : metmap@orbifly.com




SOURCES & CREDITS :

   NOAA       Earth
Advisory